RJOF(METAR)
05/30 17:00
METAR RJOF 300800Z 10007KT 9999 FEW050 SCT180 OVC210 23/13 Q1016 RMK
1SC050 3AC180 A3000=
戻る
トップページへ戻る
IMOC Co,.Ltd.